sensor_id;sensor_type;location;lat;lon;timestamp;P1;durP1;ratioP1;P2;durP2;ratioP2
70228;SDS011;57617;51.988;5.854;2023-04-15T00:01:58;10.20;;;4.40;;
70228;SDS011;57617;51.988;5.854;2023-04-15T00:04:24;9.55;;;4.53;;
70228;SDS011;57617;51.988;5.854;2023-04-15T00:06:50;11.40;;;4.45;;
70228;SDS011;57617;51.988;5.854;2023-04-15T00:09:17;10.52;;;4.95;;
70228;SDS011;57617;51.988;5.854;2023-04-15T00:11:43;9.30;;;4.68;;
70228;SDS011;57617;51.988;5.854;2023-04-15T00:14:09;9.63;;;4.93;;
70228;SDS011;57617;51.988;5.854;2023-04-15T00:16:34;8.73;;;4.40;;
70228;SDS011;57617;51.988;5.854;2023-04-15T00:19:00;9.10;;;4.55;;
70228;SDS011;57617;51.988;5.854;2023-04-15T00:21:25;10.40;;;4.85;;
70228;SDS011;57617;51.988;5.854;2023-04-15T00:23:51;7.50;;;4.57;;
70228;SDS011;57617;51.988;5.854;2023-04-15T00:26:17;9.30;;;4.85;;
70228;SDS011;57617;51.988;5.854;2023-04-15T00:28:43;9.52;;;4.53;;
70228;SDS011;57617;51.988;5.854;2023-04-15T00:31:09;11.98;;;5.00;;
70228;SDS011;57617;51.988;5.854;2023-04-15T00:33:34;10.20;;;4.72;;
70228;SDS011;57617;51.988;5.854;2023-04-15T00:36:00;11.23;;;4.80;;
70228;SDS011;57617;51.988;5.854;2023-04-15T00:38:26;6.57;;;4.53;;
70228;SDS011;57617;51.988;5.854;2023-04-15T00:40:52;8.10;;;4.68;;
70228;SDS011;57617;51.988;5.854;2023-04-15T00:43:17;8.95;;;4.95;;
70228;SDS011;57617;51.988;5.854;2023-04-15T00:45:43;9.98;;;4.93;;
70228;SDS011;57617;51.988;5.854;2023-04-15T00:48:08;7.88;;;4.90;;
70228;SDS011;57617;51.988;5.854;2023-04-15T00:50:35;9.25;;;4.68;;
70228;SDS011;57617;51.988;5.854;2023-04-15T00:53:00;9.75;;;4.70;;
70228;SDS011;57617;51.988;5.854;2023-04-15T00:55:26;9.48;;;4.63;;
70228;SDS011;57617;51.988;5.854;2023-04-15T00:57:52;8.85;;;5.00;;
70228;SDS011;57617;51.988;5.854;2023-04-15T01:00:17;12.05;;;4.55;;
70228;SDS011;57617;51.988;5.854;2023-04-15T01:02:44;10.90;;;4.80;;
70228;SDS011;57617;51.988;5.854;2023-04-15T01:05:09;10.27;;;4.82;;
70228;SDS011;57617;51.988;5.854;2023-04-15T01:07:35;9.07;;;4.72;;
70228;SDS011;57617;51.988;5.854;2023-04-15T01:10:02;9.00;;;4.97;;
70228;SDS011;57617;51.988;5.854;2023-04-15T01:12:28;8.68;;;4.88;;
70228;SDS011;57617;51.988;5.854;2023-04-15T01:14:54;9.90;;;4.68;;
70228;SDS011;57617;51.988;5.854;2023-04-15T01:17:20;8.60;;;5.00;;
70228;SDS011;57617;51.988;5.854;2023-04-15T01:19:45;9.77;;;4.72;;
70228;SDS011;57617;51.988;5.854;2023-04-15T01:22:11;10.75;;;4.90;;
70228;SDS011;57617;51.988;5.854;2023-04-15T01:24:36;11.00;;;5.18;;
70228;SDS011;57617;51.988;5.854;2023-04-15T01:27:02;9.23;;;4.65;;
70228;SDS011;57617;51.988;5.854;2023-04-15T01:29:29;8.98;;;4.82;;
70228;SDS011;57617;51.988;5.854;2023-04-15T01:31:55;10.57;;;4.70;;
70228;SDS011;57617;51.988;5.854;2023-04-15T01:34:21;9.48;;;5.00;;
70228;SDS011;57617;51.988;5.854;2023-04-15T01:36:46;9.07;;;5.00;;
70228;SDS011;57617;51.988;5.854;2023-04-15T01:39:12;10.40;;;5.13;;
70228;SDS011;57617;51.988;5.854;2023-04-15T01:41:37;9.00;;;5.07;;
70228;SDS011;57617;51.988;5.854;2023-04-15T01:44:03;7.57;;;4.57;;
70228;SDS011;57617;51.988;5.854;2023-04-15T01:46:28;11.50;;;5.07;;
70228;SDS011;57617;51.988;5.854;2023-04-15T01:48:54;8.77;;;4.90;;
70228;SDS011;57617;51.988;5.854;2023-04-15T01:51:20;7.80;;;4.80;;
70228;SDS011;57617;51.988;5.854;2023-04-15T01:53:45;9.50;;;5.00;;
70228;SDS011;57617;51.988;5.854;2023-04-15T01:56:11;10.65;;;4.85;;
70228;SDS011;57617;51.988;5.854;2023-04-15T01:58:36;11.25;;;5.28;;
70228;SDS011;57617;51.988;5.854;2023-04-15T02:01:02;8.55;;;5.07;;
70228;SDS011;57617;51.988;5.854;2023-04-15T02:03:28;10.60;;;5.78;;
70228;SDS011;57617;51.988;5.854;2023-04-15T02:05:53;8.93;;;4.85;;
70228;SDS011;57617;51.988;5.854;2023-04-15T02:08:18;8.30;;;5.20;;
70228;SDS011;57617;51.988;5.854;2023-04-15T02:10:44;7.95;;;4.97;;
70228;SDS011;57617;51.988;5.854;2023-04-15T02:13:09;10.43;;;5.20;;
70228;SDS011;57617;51.988;5.854;2023-04-15T02:15:34;7.53;;;4.70;;
70228;SDS011;57617;51.988;5.854;2023-04-15T02:18:00;12.98;;;5.38;;
70228;SDS011;57617;51.988;5.854;2023-04-15T02:20:25;11.55;;;5.15;;
70228;SDS011;57617;51.988;5.854;2023-04-15T02:22:51;7.60;;;4.90;;
70228;SDS011;57617;51.988;5.854;2023-04-15T02:25:16;9.38;;;5.35;;
70228;SDS011;57617;51.988;5.854;2023-04-15T02:27:42;9.88;;;5.30;;
70228;SDS011;57617;51.988;5.854;2023-04-15T02:30:08;10.68;;;4.60;;
70228;SDS011;57617;51.988;5.854;2023-04-15T02:32:34;8.13;;;4.90;;
70228;SDS011;57617;51.988;5.854;2023-04-15T02:35:03;9.05;;;5.18;;
70228;SDS011;57617;51.988;5.854;2023-04-15T02:37:29;10.05;;;4.93;;
70228;SDS011;57617;51.988;5.854;2023-04-15T02:39:55;9.90;;;4.75;;
70228;SDS011;57617;51.988;5.854;2023-04-15T02:42:21;8.77;;;4.95;;
70228;SDS011;57617;51.988;5.854;2023-04-15T02:44:46;10.18;;;5.07;;
70228;SDS011;57617;51.988;5.854;2023-04-15T02:47:11;9.43;;;4.90;;
70228;SDS011;57617;51.988;5.854;2023-04-15T02:49:38;8.93;;;4.93;;
70228;SDS011;57617;51.988;5.854;2023-04-15T02:52:04;10.75;;;5.35;;
70228;SDS011;57617;51.988;5.854;2023-04-15T02:54:30;10.93;;;5.30;;
70228;SDS011;57617;51.988;5.854;2023-04-15T02:56:57;12.07;;;5.22;;
70228;SDS011;57617;51.988;5.854;2023-04-15T02:59:23;11.30;;;5.30;;
70228;SDS011;57617;51.988;5.854;2023-04-15T03:01:48;21.80;;;5.60;;
70228;SDS011;57617;51.988;5.854;2023-04-15T03:04:13;9.10;;;5.20;;
70228;SDS011;57617;51.988;5.854;2023-04-15T03:06:39;11.68;;;5.63;;
70228;SDS011;57617;51.988;5.854;2023-04-15T03:09:04;9.27;;;5.10;;
70228;SDS011;57617;51.988;5.854;2023-04-15T03:11:30;10.63;;;5.18;;
70228;SDS011;57617;51.988;5.854;2023-04-15T03:13:56;12.02;;;5.60;;
70228;SDS011;57617;51.988;5.854;2023-04-15T03:16:22;12.07;;;5.88;;
70228;SDS011;57617;51.988;5.854;2023-04-15T03:18:48;13.13;;;5.78;;
70228;SDS011;57617;51.988;5.854;2023-04-15T03:21:13;10.02;;;5.82;;
70228;SDS011;57617;51.988;5.854;2023-04-15T03:23:38;10.65;;;5.85;;
70228;SDS011;57617;51.988;5.854;2023-04-15T03:26:04;14.02;;;6.35;;
70228;SDS011;57617;51.988;5.854;2023-04-15T03:28:29;13.93;;;6.25;;
70228;SDS011;57617;51.988;5.854;2023-04-15T03:30:55;9.63;;;5.63;;
70228;SDS011;57617;51.988;5.854;2023-04-15T03:33:20;13.32;;;6.35;;
70228;SDS011;57617;51.988;5.854;2023-04-15T03:35:45;10.05;;;5.93;;
70228;SDS011;57617;51.988;5.854;2023-04-15T03:38:11;10.82;;;5.95;;
70228;SDS011;57617;51.988;5.854;2023-04-15T03:40:37;11.50;;;6.05;;
70228;SDS011;57617;51.988;5.854;2023-04-15T03:43:03;12.73;;;6.20;;
70228;SDS011;57617;51.988;5.854;2023-04-15T03:45:28;12.50;;;6.43;;
70228;SDS011;57617;51.988;5.854;2023-04-15T03:47:53;13.98;;;6.57;;
70228;SDS011;57617;51.988;5.854;2023-04-15T03:50:18;12.88;;;6.15;;
70228;SDS011;57617;51.988;5.854;2023-04-15T03:52:44;14.63;;;6.38;;
70228;SDS011;57617;51.988;5.854;2023-04-15T03:55:10;13.55;;;6.95;;
70228;SDS011;57617;51.988;5.854;2023-04-15T03:57:35;16.80;;;6.30;;
70228;SDS011;57617;51.988;5.854;2023-04-15T04:00:06;12.60;;;6.70;;
70228;SDS011;57617;51.988;5.854;2023-04-15T04:02:33;13.15;;;6.70;;
70228;SDS011;57617;51.988;5.854;2023-04-15T04:04:58;15.10;;;7.18;;
70228;SDS011;57617;51.988;5.854;2023-04-15T04:07:24;11.88;;;6.60;;
70228;SDS011;57617;51.988;5.854;2023-04-15T04:09:49;13.60;;;6.78;;
70228;SDS011;57617;51.988;5.854;2023-04-15T04:12:15;14.75;;;6.65;;
70228;SDS011;57617;51.988;5.854;2023-04-15T04:14:40;18.58;;;7.15;;
70228;SDS011;57617;51.988;5.854;2023-04-15T04:17:06;12.70;;;6.57;;
70228;SDS011;57617;51.988;5.854;2023-04-15T04:19:31;14.00;;;7.00;;
70228;SDS011;57617;51.988;5.854;2023-04-15T04:21:56;13.40;;;7.28;;
70228;SDS011;57617;51.988;5.854;2023-04-15T04:24:22;11.57;;;6.53;;
70228;SDS011;57617;51.988;5.854;2023-04-15T04:26:47;12.07;;;6.75;;
70228;SDS011;57617;51.988;5.854;2023-04-15T04:29:12;15.02;;;6.88;;
70228;SDS011;57617;51.988;5.854;2023-04-15T04:31:38;12.68;;;7.35;;
70228;SDS011;57617;51.988;5.854;2023-04-15T04:34:03;13.18;;;7.13;;
70228;SDS011;57617;51.988;5.854;2023-04-15T04:36:28;15.23;;;7.70;;
70228;SDS011;57617;51.988;5.854;2023-04-15T04:38:54;13.10;;;7.55;;
70228;SDS011;57617;51.988;5.854;2023-04-15T04:41:19;13.88;;;7.65;;
70228;SDS011;57617;51.988;5.854;2023-04-15T04:43:45;14.95;;;7.72;;
70228;SDS011;57617;51.988;5.854;2023-04-15T04:46:11;12.65;;;7.68;;
70228;SDS011;57617;51.988;5.854;2023-04-15T04:48:36;13.82;;;7.63;;
70228;SDS011;57617;51.988;5.854;2023-04-15T04:51:02;14.35;;;7.35;;
70228;SDS011;57617;51.988;5.854;2023-04-15T04:53:27;15.32;;;7.68;;
70228;SDS011;57617;51.988;5.854;2023-04-15T04:55:52;15.40;;;7.82;;
70228;SDS011;57617;51.988;5.854;2023-04-15T04:58:18;14.85;;;7.95;;
70228;SDS011;57617;51.988;5.854;2023-04-15T05:00:43;13.68;;;7.20;;
70228;SDS011;57617;51.988;5.854;2023-04-15T05:03:08;15.02;;;7.97;;
70228;SDS011;57617;51.988;5.854;2023-04-15T05:05:34;17.48;;;7.82;;
70228;SDS011;57617;51.988;5.854;2023-04-15T05:08:00;13.60;;;8.18;;
70228;SDS011;57617;51.988;5.854;2023-04-15T05:10:26;14.35;;;7.75;;
70228;SDS011;57617;51.988;5.854;2023-04-15T05:12:51;14.77;;;7.82;;
70228;SDS011;57617;51.988;5.854;2023-04-15T05:15:17;13.75;;;7.53;;
70228;SDS011;57617;51.988;5.854;2023-04-15T05:17:42;13.15;;;7.57;;
70228;SDS011;57617;51.988;5.854;2023-04-15T05:20:07;14.55;;;7.75;;
70228;SDS011;57617;51.988;5.854;2023-04-15T05:22:33;13.23;;;8.00;;
70228;SDS011;57617;51.988;5.854;2023-04-15T05:24:59;13.18;;;7.70;;
70228;SDS011;57617;51.988;5.854;2023-04-15T05:27:24;14.52;;;7.68;;
70228;SDS011;57617;51.988;5.854;2023-04-15T05:29:49;14.82;;;7.72;;
70228;SDS011;57617;51.988;5.854;2023-04-15T05:32:15;13.77;;;7.80;;
70228;SDS011;57617;51.988;5.854;2023-04-15T05:34:40;16.10;;;8.00;;
70228;SDS011;57617;51.988;5.854;2023-04-15T05:37:06;14.02;;;7.80;;
70228;SDS011;57617;51.988;5.854;2023-04-15T05:39:31;14.32;;;7.88;;
70228;SDS011;57617;51.988;5.854;2023-04-15T05:41:57;16.38;;;8.43;;
70228;SDS011;57617;51.988;5.854;2023-04-15T05:44:23;15.90;;;8.50;;
70228;SDS011;57617;51.988;5.854;2023-04-15T05:46:49;13.25;;;8.10;;
70228;SDS011;57617;51.988;5.854;2023-04-15T05:49:14;14.75;;;7.85;;
70228;SDS011;57617;51.988;5.854;2023-04-15T05:51:40;16.73;;;8.85;;
70228;SDS011;57617;51.988;5.854;2023-04-15T05:54:05;15.07;;;7.82;;
70228;SDS011;57617;51.988;5.854;2023-04-15T05:56:30;17.23;;;8.27;;
70228;SDS011;57617;51.988;5.854;2023-04-15T05:58:56;16.38;;;7.97;;
70228;SDS011;57617;51.988;5.854;2023-04-15T06:01:21;15.32;;;8.18;;
70228;SDS011;57617;51.988;5.854;2023-04-15T06:03:46;15.23;;;7.90;;
70228;SDS011;57617;51.988;5.854;2023-04-15T06:06:12;15.40;;;8.20;;
70228;SDS011;57617;51.988;5.854;2023-04-15T06:08:38;13.60;;;7.97;;
70228;SDS011;57617;51.988;5.854;2023-04-15T06:11:03;16.35;;;8.75;;
70228;SDS011;57617;51.988;5.854;2023-04-15T06:13:29;14.93;;;8.50;;
70228;SDS011;57617;51.988;5.854;2023-04-15T06:15:54;14.48;;;8.48;;
70228;SDS011;57617;51.988;5.854;2023-04-15T06:18:19;16.33;;;8.73;;
70228;SDS011;57617;51.988;5.854;2023-04-15T06:20:45;16.50;;;8.15;;
70228;SDS011;57617;51.988;5.854;2023-04-15T06:23:10;15.25;;;8.60;;
70228;SDS011;57617;51.988;5.854;2023-04-15T06:25:36;15.13;;;8.13;;
70228;SDS011;57617;51.988;5.854;2023-04-15T06:28:01;14.80;;;8.32;;
70228;SDS011;57617;51.988;5.854;2023-04-15T06:30:26;17.73;;;8.30;;
70228;SDS011;57617;51.988;5.854;2023-04-15T06:32:52;16.80;;;8.25;;
70228;SDS011;57617;51.988;5.854;2023-04-15T06:35:18;16.10;;;8.20;;
70228;SDS011;57617;51.988;5.854;2023-04-15T06:37:44;13.95;;;7.53;;
70228;SDS011;57617;51.988;5.854;2023-04-15T06:40:09;13.07;;;7.38;;
70228;SDS011;57617;51.988;5.854;2023-04-15T06:42:35;14.55;;;7.18;;
70228;SDS011;57617;51.988;5.854;2023-04-15T06:45:02;13.55;;;7.55;;
70228;SDS011;57617;51.988;5.854;2023-04-15T06:47:27;14.15;;;7.38;;
70228;SDS011;57617;51.988;5.854;2023-04-15T06:49:53;12.38;;;6.57;;
70228;SDS011;57617;51.988;5.854;2023-04-15T06:52:18;13.32;;;7.63;;
70228;SDS011;57617;51.988;5.854;2023-04-15T06:54:43;14.98;;;7.80;;
70228;SDS011;57617;51.988;5.854;2023-04-15T06:57:08;14.90;;;8.18;;
70228;SDS011;57617;51.988;5.854;2023-04-15T06:59:34;16.20;;;7.90;;
70228;SDS011;57617;51.988;5.854;2023-04-15T07:02:00;17.27;;;8.18;;
70228;SDS011;57617;51.988;5.854;2023-04-15T07:04:25;15.77;;;8.00;;
70228;SDS011;57617;51.988;5.854;2023-04-15T07:06:51;15.48;;;8.25;;
70228;SDS011;57617;51.988;5.854;2023-04-15T07:09:17;17.88;;;8.27;;
70228;SDS011;57617;51.988;5.854;2023-04-15T07:11:43;14.88;;;7.63;;
70228;SDS011;57617;51.988;5.854;2023-04-15T07:14:09;12.90;;;7.28;;
70228;SDS011;57617;51.988;5.854;2023-04-15T07:16:34;13.50;;;7.05;;
70228;SDS011;57617;51.988;5.854;2023-04-15T07:18:59;12.18;;;7.40;;
70228;SDS011;57617;51.988;5.854;2023-04-15T07:21:24;13.85;;;7.60;;
70228;SDS011;57617;51.988;5.854;2023-04-15T07:23:51;13.88;;;7.30;;
70228;SDS011;57617;51.988;5.854;2023-04-15T07:26:16;12.75;;;7.03;;
70228;SDS011;57617;51.988;5.854;2023-04-15T07:28:42;15.35;;;7.53;;
70228;SDS011;57617;51.988;5.854;2023-04-15T07:31:07;15.40;;;7.38;;
70228;SDS011;57617;51.988;5.854;2023-04-15T07:33:32;16.83;;;8.07;;
70228;SDS011;57617;51.988;5.854;2023-04-15T07:35:58;14.98;;;7.28;;
70228;SDS011;57617;51.988;5.854;2023-04-15T07:38:23;12.60;;;7.32;;
70228;SDS011;57617;51.988;5.854;2023-04-15T07:40:48;14.45;;;7.45;;
70228;SDS011;57617;51.988;5.854;2023-04-15T07:43:14;13.25;;;7.50;;
70228;SDS011;57617;51.988;5.854;2023-04-15T07:45:40;13.18;;;7.38;;
70228;SDS011;57617;51.988;5.854;2023-04-15T07:48:05;14.18;;;7.53;;
70228;SDS011;57617;51.988;5.854;2023-04-15T07:50:30;16.98;;;7.65;;
70228;SDS011;57617;51.988;5.854;2023-04-15T07:52:56;13.65;;;7.20;;
70228;SDS011;57617;51.988;5.854;2023-04-15T07:55:21;13.30;;;7.40;;
70228;SDS011;57617;51.988;5.854;2023-04-15T07:57:48;14.75;;;7.13;;
70228;SDS011;57617;51.988;5.854;2023-04-15T08:00:14;27.38;;;13.90;;
70228;SDS011;57617;51.988;5.854;2023-04-15T08:02:40;13.65;;;7.40;;
70228;SDS011;57617;51.988;5.854;2023-04-15T08:05:06;12.35;;;6.88;;
70228;SDS011;57617;51.988;5.854;2023-04-15T08:07:33;15.80;;;7.60;;
70228;SDS011;57617;51.988;5.854;2023-04-15T08:09:58;13.25;;;7.28;;
70228;SDS011;57617;51.988;5.854;2023-04-15T08:12:23;13.70;;;7.45;;
70228;SDS011;57617;51.988;5.854;2023-04-15T08:14:49;14.02;;;6.90;;
70228;SDS011;57617;51.988;5.854;2023-04-15T08:17:15;13.50;;;7.55;;
70228;SDS011;57617;51.988;5.854;2023-04-15T08:19:41;12.40;;;7.15;;
70228;SDS011;57617;51.988;5.854;2023-04-15T08:22:06;11.38;;;6.90;;
70228;SDS011;57617;51.988;5.854;2023-04-15T08:24:32;13.00;;;6.30;;
70228;SDS011;57617;51.988;5.854;2023-04-15T08:26:58;11.15;;;5.97;;
70228;SDS011;57617;51.988;5.854;2023-04-15T08:29:23;11.15;;;6.05;;
70228;SDS011;57617;51.988;5.854;2023-04-15T08:31:49;10.90;;;5.68;;
70228;SDS011;57617;51.988;5.854;2023-04-15T08:34:14;8.98;;;5.38;;
70228;SDS011;57617;51.988;5.854;2023-04-15T08:36:39;8.38;;;4.55;;
70228;SDS011;57617;51.988;5.854;2023-04-15T08:39:05;7.68;;;4.63;;
70228;SDS011;57617;51.988;5.854;2023-04-15T08:41:43;6.97;;;4.03;;
70228;SDS011;57617;51.988;5.854;2023-04-15T08:44:13;7.35;;;4.10;;
70228;SDS011;57617;51.988;5.854;2023-04-15T08:46:40;6.40;;;3.90;;
70228;SDS011;57617;51.988;5.854;2023-04-15T08:49:06;5.55;;;3.50;;
70228;SDS011;57617;51.988;5.854;2023-04-15T08:51:36;5.85;;;3.53;;
70228;SDS011;57617;51.988;5.854;2023-04-15T08:54:02;5.32;;;3.22;;
70228;SDS011;57617;51.988;5.854;2023-04-15T08:56:29;5.30;;;3.33;;
70228;SDS011;57617;51.988;5.854;2023-04-15T08:58:58;6.70;;;3.65;;
70228;SDS011;57617;51.988;5.854;2023-04-15T09:01:24;5.05;;;3.33;;
70228;SDS011;57617;51.988;5.854;2023-04-15T09:03:50;5.88;;;3.47;;
70228;SDS011;57617;51.988;5.854;2023-04-15T09:06:17;5.90;;;3.60;;
70228;SDS011;57617;51.988;5.854;2023-04-15T09:08:42;5.10;;;3.40;;
70228;SDS011;57617;51.988;5.854;2023-04-15T09:11:08;5.25;;;3.15;;
70228;SDS011;57617;51.988;5.854;2023-04-15T09:13:34;6.45;;;3.45;;
70228;SDS011;57617;51.988;5.854;2023-04-15T09:16:02;7.30;;;3.92;;
70228;SDS011;57617;51.988;5.854;2023-04-15T09:18:30;5.38;;;3.58;;
70228;SDS011;57617;51.988;5.854;2023-04-15T09:21:07;5.55;;;3.47;;
70228;SDS011;57617;51.988;5.854;2023-04-15T09:23:35;6.40;;;3.90;;
70228;SDS011;57617;51.988;5.854;2023-04-15T09:26:02;5.85;;;3.70;;
70228;SDS011;57617;51.988;5.854;2023-04-15T09:28:28;8.00;;;3.83;;
70228;SDS011;57617;51.988;5.854;2023-04-15T09:30:54;5.57;;;3.70;;
70228;SDS011;57617;51.988;5.854;2023-04-15T09:33:24;6.97;;;4.20;;
70228;SDS011;57617;51.988;5.854;2023-04-15T09:38:26;7.07;;;4.00;;
70228;SDS011;57617;51.988;5.854;2023-04-15T09:40:52;5.50;;;3.60;;
70228;SDS011;57617;51.988;5.854;2023-04-15T09:43:18;6.70;;;3.60;;
70228;SDS011;57617;51.988;5.854;2023-04-15T09:45:46;6.75;;;3.53;;
70228;SDS011;57617;51.988;5.854;2023-04-15T09:48:22;6.38;;;3.35;;
70228;SDS011;57617;51.988;5.854;2023-04-15T09:50:52;6.00;;;3.42;;
70228;SDS011;57617;51.988;5.854;2023-04-15T09:53:22;6.05;;;3.25;;
70228;SDS011;57617;51.988;5.854;2023-04-15T09:55:52;7.82;;;3.65;;
70228;SDS011;57617;51.988;5.854;2023-04-15T09:58:25;5.50;;;3.65;;
70228;SDS011;57617;51.988;5.854;2023-04-15T10:00:53;6.60;;;3.70;;
70228;SDS011;57617;51.988;5.854;2023-04-15T10:03:21;6.50;;;3.35;;
70228;SDS011;57617;51.988;5.854;2023-04-15T10:05:47;6.60;;;3.40;;
70228;SDS011;57617;51.988;5.854;2023-04-15T10:08:15;6.28;;;3.10;;
70228;SDS011;57617;51.988;5.854;2023-04-15T10:10:41;7.07;;;3.25;;
70228;SDS011;57617;51.988;5.854;2023-04-15T10:13:07;5.32;;;3.00;;
70228;SDS011;57617;51.988;5.854;2023-04-15T10:15:33;5.22;;;3.10;;
70228;SDS011;57617;51.988;5.854;2023-04-15T10:17:59;5.80;;;3.20;;
70228;SDS011;57617;51.988;5.854;2023-04-15T10:20:25;6.82;;;3.28;;
70228;SDS011;57617;51.988;5.854;2023-04-15T10:22:53;4.03;;;2.65;;
70228;SDS011;57617;51.988;5.854;2023-04-15T10:25:18;5.28;;;3.30;;
70228;SDS011;57617;51.988;5.854;2023-04-15T10:27:45;3.85;;;2.67;;
70228;SDS011;57617;51.988;5.854;2023-04-15T10:30:12;7.53;;;2.97;;
70228;SDS011;57617;51.988;5.854;2023-04-15T10:32:38;4.60;;;3.05;;
70228;SDS011;57617;51.988;5.854;2023-04-15T10:35:05;7.85;;;3.00;;
70228;SDS011;57617;51.988;5.854;2023-04-15T10:37:33;6.53;;;3.42;;
70228;SDS011;57617;51.988;5.854;2023-04-15T10:40:01;7.07;;;3.28;;
70228;SDS011;57617;51.988;5.854;2023-04-15T10:42:59;5.47;;;2.90;;
70228;SDS011;57617;51.988;5.854;2023-04-15T10:45:26;4.90;;;3.03;;
70228;SDS011;57617;51.988;5.854;2023-04-15T10:47:56;4.60;;;2.72;;
70228;SDS011;57617;51.988;5.854;2023-04-15T10:50:24;4.28;;;3.00;;
70228;SDS011;57617;51.988;5.854;2023-04-15T10:52:50;4.68;;;2.53;;
70228;SDS011;57617;51.988;5.854;2023-04-15T10:55:20;4.57;;;2.92;;
70228;SDS011;57617;51.988;5.854;2023-04-15T10:57:51;3.90;;;2.75;;
70228;SDS011;57617;51.988;5.854;2023-04-15T11:00:18;5.50;;;3.17;;
70228;SDS011;57617;51.988;5.854;2023-04-15T11:02:58;7.18;;;2.80;;
70228;SDS011;57617;51.988;5.854;2023-04-15T11:08:05;3.97;;;2.50;;
70228;SDS011;57617;51.988;5.854;2023-04-15T11:12:58;4.10;;;2.47;;
70228;SDS011;57617;51.988;5.854;2023-04-15T11:15:29;4.68;;;2.47;;
70228;SDS011;57617;51.988;5.854;2023-04-15T11:18:07;3.65;;;2.03;;
70228;SDS011;57617;51.988;5.854;2023-04-15T11:20:37;4.78;;;2.10;;
70228;SDS011;57617;51.988;5.854;2023-04-15T11:23:04;4.32;;;2.13;;
70228;SDS011;57617;51.988;5.854;2023-04-15T11:25:30;4.45;;;2.33;;
70228;SDS011;57617;51.988;5.854;2023-04-15T11:27:57;4.95;;;2.20;;
70228;SDS011;57617;51.988;5.854;2023-04-15T11:30:25;4.40;;;2.17;;
70228;SDS011;57617;51.988;5.854;2023-04-15T11:32:53;6.63;;;2.40;;
70228;SDS011;57617;51.988;5.854;2023-04-15T11:35:21;3.80;;;2.10;;
70228;SDS011;57617;51.988;5.854;2023-04-15T11:37:47;3.65;;;1.80;;
70228;SDS011;57617;51.988;5.854;2023-04-15T11:40:19;4.60;;;1.95;;
70228;SDS011;57617;51.988;5.854;2023-04-15T11:42:47;3.60;;;2.03;;
70228;SDS011;57617;51.988;5.854;2023-04-15T11:48:21;4.20;;;1.75;;
70228;SDS011;57617;51.988;5.854;2023-04-15T11:50:55;2.15;;;1.73;;
70228;SDS011;57617;51.988;5.854;2023-04-15T11:53:41;4.30;;;2.08;;
70228;SDS011;57617;51.988;5.854;2023-04-15T11:56:09;2.63;;;1.70;;
70228;SDS011;57617;51.988;5.854;2023-04-15T11:58:35;2.80;;;1.70;;
70228;SDS011;57617;51.988;5.854;2023-04-15T12:01:02;2.00;;;1.40;;
70228;SDS011;57617;51.988;5.854;2023-04-15T12:03:29;2.50;;;1.65;;
70228;SDS011;57617;51.988;5.854;2023-04-15T12:06:12;3.10;;;1.85;;
70228;SDS011;57617;51.988;5.854;2023-04-15T12:13:52;2.35;;;1.50;;
70228;SDS011;57617;51.988;5.854;2023-04-15T12:16:23;4.78;;;1.75;;
70228;SDS011;57617;51.988;5.854;2023-04-15T12:18:52;2.13;;;1.50;;
70228;SDS011;57617;51.988;5.854;2023-04-15T12:21:20;3.03;;;1.60;;
70228;SDS011;57617;51.988;5.854;2023-04-15T12:23:51;2.75;;;1.50;;
70228;SDS011;57617;51.988;5.854;2023-04-15T12:26:17;3.60;;;1.60;;
70228;SDS011;57617;51.988;5.854;2023-04-15T12:28:54;2.72;;;1.48;;
70228;SDS011;57617;51.988;5.854;2023-04-15T12:31:21;3.75;;;1.50;;
70228;SDS011;57617;51.988;5.854;2023-04-15T12:33:47;5.35;;;1.77;;
70228;SDS011;57617;51.988;5.854;2023-04-15T12:36:13;3.53;;;1.60;;
70228;SDS011;57617;51.988;5.854;2023-04-15T12:38:39;2.42;;;1.50;;
70228;SDS011;57617;51.988;5.854;2023-04-15T12:41:04;4.47;;;1.52;;
70228;SDS011;57617;51.988;5.854;2023-04-15T12:43:29;3.97;;;1.70;;
70228;SDS011;57617;51.988;5.854;2023-04-15T12:45:55;4.70;;;2.00;;
70228;SDS011;57617;51.988;5.854;2023-04-15T12:48:20;4.38;;;2.72;;
70228;SDS011;57617;51.988;5.854;2023-04-15T12:50:46;6.22;;;2.80;;
70228;SDS011;57617;51.988;5.854;2023-04-15T12:53:11;4.50;;;2.38;;
70228;SDS011;57617;51.988;5.854;2023-04-15T12:55:36;3.67;;;2.10;;
70228;SDS011;57617;51.988;5.854;2023-04-15T12:58:02;4.40;;;2.10;;
70228;SDS011;57617;51.988;5.854;2023-04-15T13:00:27;4.28;;;2.00;;
70228;SDS011;57617;51.988;5.854;2023-04-15T13:02:52;4.68;;;1.88;;
70228;SDS011;57617;51.988;5.854;2023-04-15T13:05:18;4.38;;;1.90;;
70228;SDS011;57617;51.988;5.854;2023-04-15T13:07:43;2.20;;;1.48;;
70228;SDS011;57617;51.988;5.854;2023-04-15T13:10:09;4.30;;;1.48;;
70228;SDS011;57617;51.988;5.854;2023-04-15T13:12:34;2.22;;;1.40;;
70228;SDS011;57617;51.988;5.854;2023-04-15T13:15:03;2.38;;;1.20;;
70228;SDS011;57617;51.988;5.854;2023-04-15T13:17:29;3.97;;;1.40;;
70228;SDS011;57617;51.988;5.854;2023-04-15T13:19:55;3.28;;;1.10;;
70228;SDS011;57617;51.988;5.854;2023-04-15T13:22:20;3.22;;;1.20;;
70228;SDS011;57617;51.988;5.854;2023-04-15T13:24:45;3.85;;;1.10;;
70228;SDS011;57617;51.988;5.854;2023-04-15T13:27:11;2.40;;;1.10;;
70228;SDS011;57617;51.988;5.854;2023-04-15T13:29:36;3.47;;;1.30;;
70228;SDS011;57617;51.988;5.854;2023-04-15T13:32:01;2.20;;;1.27;;
70228;SDS011;57617;51.988;5.854;2023-04-15T13:34:27;2.45;;;1.30;;
70228;SDS011;57617;51.988;5.854;2023-04-15T13:36:52;1.48;;;1.00;;
70228;SDS011;57617;51.988;5.854;2023-04-15T13:39:17;1.98;;;1.20;;
70228;SDS011;57617;51.988;5.854;2023-04-15T13:41:42;2.05;;;1.15;;
70228;SDS011;57617;51.988;5.854;2023-04-15T13:44:08;4.28;;;1.30;;
70228;SDS011;57617;51.988;5.854;2023-04-15T13:46:33;4.47;;;1.10;;
70228;SDS011;57617;51.988;5.854;2023-04-15T13:48:59;3.13;;;1.08;;
70228;SDS011;57617;51.988;5.854;2023-04-15T13:51:24;5.18;;;1.15;;
70228;SDS011;57617;51.988;5.854;2023-04-15T13:53:50;1.40;;;1.00;;
70228;SDS011;57617;51.988;5.854;2023-04-15T13:56:16;2.65;;;1.00;;
70228;SDS011;57617;51.988;5.854;2023-04-15T13:58:41;2.30;;;1.10;;
70228;SDS011;57617;51.988;5.854;2023-04-15T14:01:06;2.47;;;0.98;;
70228;SDS011;57617;51.988;5.854;2023-04-15T14:03:32;2.42;;;0.95;;
70228;SDS011;57617;51.988;5.854;2023-04-15T14:05:59;2.20;;;1.00;;
70228;SDS011;57617;51.988;5.854;2023-04-15T14:08:24;3.38;;;1.20;;
70228;SDS011;57617;51.988;5.854;2023-04-15T14:10:49;2.85;;;1.00;;
70228;SDS011;57617;51.988;5.854;2023-04-15T14:13:15;1.63;;;0.90;;
70228;SDS011;57617;51.988;5.854;2023-04-15T14:15:40;1.40;;;1.00;;
70228;SDS011;57617;51.988;5.854;2023-04-15T14:18:06;4.18;;;1.50;;
70228;SDS011;57617;51.988;5.854;2023-04-15T14:20:32;2.38;;;1.17;;
70228;SDS011;57617;51.988;5.854;2023-04-15T14:22:57;3.15;;;1.20;;
70228;SDS011;57617;51.988;5.854;2023-04-15T14:25:22;1.85;;;1.20;;
70228;SDS011;57617;51.988;5.854;2023-04-15T14:27:48;2.10;;;1.30;;
70228;SDS011;57617;51.988;5.854;2023-04-15T14:30:13;3.58;;;1.20;;
70228;SDS011;57617;51.988;5.854;2023-04-15T14:32:39;2.33;;;1.15;;
70228;SDS011;57617;51.988;5.854;2023-04-15T14:35:05;2.40;;;1.20;;
70228;SDS011;57617;51.988;5.854;2023-04-15T14:37:30;3.10;;;1.25;;
70228;SDS011;57617;51.988;5.854;2023-04-15T14:39:56;4.15;;;1.30;;
70228;SDS011;57617;51.988;5.854;2023-04-15T14:42:21;2.60;;;1.23;;
70228;SDS011;57617;51.988;5.854;2023-04-15T14:44:47;3.33;;;1.30;;
70228;SDS011;57617;51.988;5.854;2023-04-15T14:47:12;2.67;;;1.15;;
70228;SDS011;57617;51.988;5.854;2023-04-15T14:49:37;3.63;;;1.35;;
70228;SDS011;57617;51.988;5.854;2023-04-15T14:52:03;3.70;;;1.40;;